CheckWX is a tool to help pilots better visualize weather data.  It is not intended as a substitute for an official pre-flight weather briefing.

21:34:26 UTC

UNNT TAF
Tolmachevo Airport
Novosibirsk, Russian Federation
TAF UNNT 202000Z 2021/2121 19003MPS 5000 FU BR SCT011 TEMPO 2021/2106 0300 FZFG BKN002 FM210600 17003G08MPS CAVOK

Mar-20@
21:00 UTC

Mar-20 @ 21:00 UTC

Mar-21@
06:00 UTC

Mar-21 @ 06:00 UTC

TAF UNNT 202000Z 2021/2121 19003MPS 5000 FU BR SCT011
Wind
  • 190° at 6 KTS
Conditions
Smoke, Mist
Cloud Levels
  • Scattered at 1,100' AGL

Mar-20@
21:00 UTC

Mar-20 @ 21:00 UTC

Mar-21@
06:00 UTC

Mar-21 @ 06:00 UTC

TEMPO 2021/2106 0300 FZFG BKN002

Temporary

Temporary Changes expected for less than half the time period

Conditions
Freezing Fog
Cloud Levels
  • Broken at 200' AGL

Mar-21@
06:00 UTC

Mar-21 @ 06:00 UTC

Mar-21@
21:00 UTC

Mar-21 @ 21:00 UTC

FM210600 17003G08MPS CAVOK

From

From Standard forecast or significant change

Wind
  • 170° at 6 KTS
  • {Gusting to 16 KTS
Conditions
No significant weather
Cloud Levels
  • No significant clouds